sensor_id;sensor_type;location;lat;lon;timestamp;P1;durP1;ratioP1;P2;durP2;ratioP2
27939;SDS011;15275;51.716;14.324;2022-07-23T00:00:20;3.33;;;3.00;;
27939;SDS011;15275;51.716;14.324;2022-07-23T00:02:46;5.13;;;3.10;;
27939;SDS011;15275;51.716;14.324;2022-07-23T00:05:12;3.15;;;2.80;;
27939;SDS011;15275;51.716;14.324;2022-07-23T00:07:38;5.53;;;2.30;;
27939;SDS011;15275;51.716;14.324;2022-07-23T00:10:05;5.32;;;3.35;;
27939;SDS011;15275;51.716;14.324;2022-07-23T00:12:31;5.07;;;3.10;;
27939;SDS011;15275;51.716;14.324;2022-07-23T00:14:58;3.00;;;2.72;;
27939;SDS011;15275;51.716;14.324;2022-07-23T00:17:24;3.13;;;2.92;;
27939;SDS011;15275;51.716;14.324;2022-07-23T00:19:50;2.85;;;2.53;;
27939;SDS011;15275;51.716;14.324;2022-07-23T00:22:16;3.30;;;3.00;;
27939;SDS011;15275;51.716;14.324;2022-07-23T00:24:42;8.68;;;2.63;;
27939;SDS011;15275;51.716;14.324;2022-07-23T00:27:07;2.88;;;2.63;;
27939;SDS011;15275;51.716;14.324;2022-07-23T00:29:33;6.38;;;3.00;;
27939;SDS011;15275;51.716;14.324;2022-07-23T00:31:59;3.22;;;2.78;;
27939;SDS011;15275;51.716;14.324;2022-07-23T00:34:25;2.47;;;2.25;;
27939;SDS011;15275;51.716;14.324;2022-07-23T00:36:51;4.60;;;3.28;;
27939;SDS011;15275;51.716;14.324;2022-07-23T00:39:18;8.02;;;3.00;;
27939;SDS011;15275;51.716;14.324;2022-07-23T00:41:47;3.10;;;2.80;;
27939;SDS011;15275;51.716;14.324;2022-07-23T00:44:14;7.70;;;2.88;;
27939;SDS011;15275;51.716;14.324;2022-07-23T00:46:52;4.15;;;3.13;;
27939;SDS011;15275;51.716;14.324;2022-07-23T00:49:25;3.20;;;2.58;;
27939;SDS011;15275;51.716;14.324;2022-07-23T00:51:54;6.15;;;2.75;;
27939;SDS011;15275;51.716;14.324;2022-07-23T00:54:22;4.22;;;2.92;;
27939;SDS011;15275;51.716;14.324;2022-07-23T00:56:50;4.00;;;2.78;;
27939;SDS011;15275;51.716;14.324;2022-07-23T00:59:16;3.45;;;3.15;;
27939;SDS011;15275;51.716;14.324;2022-07-23T01:01:42;3.20;;;2.78;;
27939;SDS011;15275;51.716;14.324;2022-07-23T01:04:09;3.22;;;2.75;;
27939;SDS011;15275;51.716;14.324;2022-07-23T01:06:37;3.30;;;2.90;;
27939;SDS011;15275;51.716;14.324;2022-07-23T01:09:04;5.57;;;3.38;;
27939;SDS011;15275;51.716;14.324;2022-07-23T01:11:32;3.72;;;3.33;;
27939;SDS011;15275;51.716;14.324;2022-07-23T01:14:06;3.67;;;3.15;;
27939;SDS011;15275;51.716;14.324;2022-07-23T01:16:38;3.50;;;2.95;;
27939;SDS011;15275;51.716;14.324;2022-07-23T01:19:05;3.63;;;3.20;;
27939;SDS011;15275;51.716;14.324;2022-07-23T01:21:32;4.18;;;3.10;;
27939;SDS011;15275;51.716;14.324;2022-07-23T01:24:11;3.13;;;2.83;;
27939;SDS011;15275;51.716;14.324;2022-07-23T01:26:38;3.25;;;2.95;;
27939;SDS011;15275;51.716;14.324;2022-07-23T01:29:08;3.20;;;2.90;;
27939;SDS011;15275;51.716;14.324;2022-07-23T01:31:34;7.65;;;3.15;;
27939;SDS011;15275;51.716;14.324;2022-07-23T01:33:59;4.38;;;2.92;;
27939;SDS011;15275;51.716;14.324;2022-07-23T01:36:25;4.70;;;3.13;;
27939;SDS011;15275;51.716;14.324;2022-07-23T01:38:51;3.55;;;3.10;;
27939;SDS011;15275;51.716;14.324;2022-07-23T01:41:18;4.43;;;2.78;;
27939;SDS011;15275;51.716;14.324;2022-07-23T01:43:44;3.38;;;2.90;;
27939;SDS011;15275;51.716;14.324;2022-07-23T01:46:10;2.97;;;2.67;;
27939;SDS011;15275;51.716;14.324;2022-07-23T01:48:36;3.38;;;2.67;;
27939;SDS011;15275;51.716;14.324;2022-07-23T01:51:02;3.50;;;3.20;;
27939;SDS011;15275;51.716;14.324;2022-07-23T01:53:28;3.63;;;2.72;;
27939;SDS011;15275;51.716;14.324;2022-07-23T01:55:56;3.75;;;3.30;;
27939;SDS011;15275;51.716;14.324;2022-07-23T01:58:23;3.30;;;2.83;;
27939;SDS011;15275;51.716;14.324;2022-07-23T02:00:51;32.33;;;3.35;;
27939;SDS011;15275;51.716;14.324;2022-07-23T02:03:17;2.97;;;2.72;;
27939;SDS011;15275;51.716;14.324;2022-07-23T02:05:43;5.70;;;3.20;;
27939;SDS011;15275;51.716;14.324;2022-07-23T02:08:09;6.60;;;3.15;;
27939;SDS011;15275;51.716;14.324;2022-07-23T02:10:35;6.15;;;3.20;;
27939;SDS011;15275;51.716;14.324;2022-07-23T02:13:01;3.10;;;2.83;;
27939;SDS011;15275;51.716;14.324;2022-07-23T02:15:27;3.97;;;2.70;;
27939;SDS011;15275;51.716;14.324;2022-07-23T02:17:54;3.85;;;3.03;;
27939;SDS011;15275;51.716;14.324;2022-07-23T02:20:20;4.18;;;3.00;;
27939;SDS011;15275;51.716;14.324;2022-07-23T02:22:46;3.38;;;2.85;;
27939;SDS011;15275;51.716;14.324;2022-07-23T02:25:13;7.40;;;3.47;;
27939;SDS011;15275;51.716;14.324;2022-07-23T02:27:39;3.22;;;2.92;;
27939;SDS011;15275;51.716;14.324;2022-07-23T02:30:06;3.40;;;3.08;;
27939;SDS011;15275;51.716;14.324;2022-07-23T02:32:33;3.28;;;2.97;;
27939;SDS011;15275;51.716;14.324;2022-07-23T02:34:59;3.60;;;3.28;;
27939;SDS011;15275;51.716;14.324;2022-07-23T02:37:26;3.45;;;2.95;;
27939;SDS011;15275;51.716;14.324;2022-07-23T02:39:52;3.10;;;2.80;;
27939;SDS011;15275;51.716;14.324;2022-07-23T02:42:18;3.40;;;2.85;;
27939;SDS011;15275;51.716;14.324;2022-07-23T02:44:44;3.85;;;3.45;;
27939;SDS011;15275;51.716;14.324;2022-07-23T02:47:10;5.70;;;3.53;;
27939;SDS011;15275;51.716;14.324;2022-07-23T02:49:36;3.47;;;3.15;;
27939;SDS011;15275;51.716;14.324;2022-07-23T02:52:02;4.72;;;3.45;;
27939;SDS011;15275;51.716;14.324;2022-07-23T02:54:28;3.53;;;3.22;;
27939;SDS011;15275;51.716;14.324;2022-07-23T02:56:54;4.43;;;3.45;;
27939;SDS011;15275;51.716;14.324;2022-07-23T02:59:20;3.75;;;3.38;;
27939;SDS011;15275;51.716;14.324;2022-07-23T03:01:46;4.07;;;3.50;;
27939;SDS011;15275;51.716;14.324;2022-07-23T03:04:12;4.32;;;3.28;;
27939;SDS011;15275;51.716;14.324;2022-07-23T03:06:38;4.40;;;3.45;;
27939;SDS011;15275;51.716;14.324;2022-07-23T03:09:04;4.70;;;3.55;;
27939;SDS011;15275;51.716;14.324;2022-07-23T03:11:31;3.92;;;3.45;;
27939;SDS011;15275;51.716;14.324;2022-07-23T03:13:56;3.83;;;3.45;;
27939;SDS011;15275;51.716;14.324;2022-07-23T03:16:22;3.80;;;3.05;;
27939;SDS011;15275;51.716;14.324;2022-07-23T03:18:48;4.88;;;3.33;;
27939;SDS011;15275;51.716;14.324;2022-07-23T03:21:14;3.30;;;3.00;;
27939;SDS011;15275;51.716;14.324;2022-07-23T03:23:40;4.68;;;3.35;;
27939;SDS011;15275;51.716;14.324;2022-07-23T03:26:06;3.95;;;3.22;;
27939;SDS011;15275;51.716;14.324;2022-07-23T03:28:31;3.38;;;3.00;;
27939;SDS011;15275;51.716;14.324;2022-07-23T03:30:58;3.25;;;2.95;;
27939;SDS011;15275;51.716;14.324;2022-07-23T03:33:23;4.07;;;3.58;;
27939;SDS011;15275;51.716;14.324;2022-07-23T03:35:49;4.35;;;3.95;;
27939;SDS011;15275;51.716;14.324;2022-07-23T03:38:16;5.95;;;3.65;;
27939;SDS011;15275;51.716;14.324;2022-07-23T03:40:42;3.63;;;3.33;;
27939;SDS011;15275;51.716;14.324;2022-07-23T03:43:08;3.40;;;3.10;;
27939;SDS011;15275;51.716;14.324;2022-07-23T03:45:34;5.15;;;3.72;;
27939;SDS011;15275;51.716;14.324;2022-07-23T03:47:59;5.78;;;3.83;;
27939;SDS011;15275;51.716;14.324;2022-07-23T03:50:25;5.63;;;3.28;;
27939;SDS011;15275;51.716;14.324;2022-07-23T03:52:51;9.35;;;4.20;;
27939;SDS011;15275;51.716;14.324;2022-07-23T03:55:19;4.45;;;3.72;;
27939;SDS011;15275;51.716;14.324;2022-07-23T03:57:45;4.15;;;3.28;;
27939;SDS011;15275;51.716;14.324;2022-07-23T04:00:11;5.75;;;3.38;;
27939;SDS011;15275;51.716;14.324;2022-07-23T04:02:38;5.75;;;3.85;;
27939;SDS011;15275;51.716;14.324;2022-07-23T04:05:05;5.35;;;3.67;;
27939;SDS011;15275;51.716;14.324;2022-07-23T04:07:31;6.53;;;3.90;;
27939;SDS011;15275;51.716;14.324;2022-07-23T04:09:57;4.00;;;3.60;;
27939;SDS011;15275;51.716;14.324;2022-07-23T04:12:24;6.00;;;4.18;;
27939;SDS011;15275;51.716;14.324;2022-07-23T04:14:50;5.07;;;3.55;;
27939;SDS011;15275;51.716;14.324;2022-07-23T04:17:16;4.15;;;3.47;;
27939;SDS011;15275;51.716;14.324;2022-07-23T04:19:41;4.38;;;3.92;;
27939;SDS011;15275;51.716;14.324;2022-07-23T04:22:09;6.20;;;4.03;;
27939;SDS011;15275;51.716;14.324;2022-07-23T04:24:36;7.97;;;4.10;;
27939;SDS011;15275;51.716;14.324;2022-07-23T04:27:02;6.28;;;3.95;;
27939;SDS011;15275;51.716;14.324;2022-07-23T04:29:29;5.30;;;3.78;;
27939;SDS011;15275;51.716;14.324;2022-07-23T04:31:55;5.45;;;3.80;;
27939;SDS011;15275;51.716;14.324;2022-07-23T04:34:21;4.15;;;3.55;;
27939;SDS011;15275;51.716;14.324;2022-07-23T04:36:47;3.97;;;3.58;;
27939;SDS011;15275;51.716;14.324;2022-07-23T04:39:13;4.95;;;3.38;;
27939;SDS011;15275;51.716;14.324;2022-07-23T04:41:39;4.45;;;3.78;;
27939;SDS011;15275;51.716;14.324;2022-07-23T04:44:05;4.13;;;3.72;;
27939;SDS011;15275;51.716;14.324;2022-07-23T04:46:31;5.30;;;4.10;;
27939;SDS011;15275;51.716;14.324;2022-07-23T04:48:57;4.55;;;3.78;;
27939;SDS011;15275;51.716;14.324;2022-07-23T04:51:23;5.68;;;3.75;;
27939;SDS011;15275;51.716;14.324;2022-07-23T04:53:49;5.93;;;4.15;;
27939;SDS011;15275;51.716;14.324;2022-07-23T04:56:16;6.15;;;4.07;;
27939;SDS011;15275;51.716;14.324;2022-07-23T04:58:42;5.00;;;3.88;;
27939;SDS011;15275;51.716;14.324;2022-07-23T05:01:07;4.53;;;4.13;;
27939;SDS011;15275;51.716;14.324;2022-07-23T05:03:33;3.78;;;3.45;;
27939;SDS011;15275;51.716;14.324;2022-07-23T05:05:59;4.30;;;3.58;;
27939;SDS011;15275;51.716;14.324;2022-07-23T05:08:25;3.58;;;3.22;;
27939;SDS011;15275;51.716;14.324;2022-07-23T05:10:51;9.68;;;4.18;;
27939;SDS011;15275;51.716;14.324;2022-07-23T05:13:17;4.50;;;4.10;;
27939;SDS011;15275;51.716;14.324;2022-07-23T05:15:43;5.72;;;4.40;;
27939;SDS011;15275;51.716;14.324;2022-07-23T05:18:09;6.53;;;3.78;;
27939;SDS011;15275;51.716;14.324;2022-07-23T05:20:35;4.47;;;4.07;;
27939;SDS011;15275;51.716;14.324;2022-07-23T05:23:02;4.72;;;4.25;;
27939;SDS011;15275;51.716;14.324;2022-07-23T05:25:28;4.30;;;3.95;;
27939;SDS011;15275;51.716;14.324;2022-07-23T05:27:54;4.85;;;3.60;;
27939;SDS011;15275;51.716;14.324;2022-07-23T05:30:20;5.53;;;4.03;;
27939;SDS011;15275;51.716;14.324;2022-07-23T05:32:46;8.63;;;3.80;;
27939;SDS011;15275;51.716;14.324;2022-07-23T05:35:12;5.03;;;3.97;;
27939;SDS011;15275;51.716;14.324;2022-07-23T05:37:38;4.70;;;4.20;;
27939;SDS011;15275;51.716;14.324;2022-07-23T05:40:04;5.60;;;4.22;;
27939;SDS011;15275;51.716;14.324;2022-07-23T05:42:34;4.40;;;4.00;;
27939;SDS011;15275;51.716;14.324;2022-07-23T05:45:01;5.10;;;4.45;;
27939;SDS011;15275;51.716;14.324;2022-07-23T05:47:28;5.72;;;4.47;;
27939;SDS011;15275;51.716;14.324;2022-07-23T05:50:13;5.88;;;4.63;;
27939;SDS011;15275;51.716;14.324;2022-07-23T05:52:40;6.95;;;4.43;;
27939;SDS011;15275;51.716;14.324;2022-07-23T05:55:08;5.40;;;4.78;;
27939;SDS011;15275;51.716;14.324;2022-07-23T05:57:35;5.18;;;4.07;;
27939;SDS011;15275;51.716;14.324;2022-07-23T06:00:02;8.77;;;4.13;;
27939;SDS011;15275;51.716;14.324;2022-07-23T06:02:30;5.50;;;4.65;;
27939;SDS011;15275;51.716;14.324;2022-07-23T06:04:56;5.07;;;4.60;;
27939;SDS011;15275;51.716;14.324;2022-07-23T06:07:22;6.65;;;4.50;;
27939;SDS011;15275;51.716;14.324;2022-07-23T06:09:48;4.70;;;4.22;;
27939;SDS011;15275;51.716;14.324;2022-07-23T06:12:14;6.53;;;4.55;;
27939;SDS011;15275;51.716;14.324;2022-07-23T06:14:41;5.18;;;4.63;;
27939;SDS011;15275;51.716;14.324;2022-07-23T06:17:07;7.05;;;5.13;;
27939;SDS011;15275;51.716;14.324;2022-07-23T06:19:33;5.85;;;4.30;;
27939;SDS011;15275;51.716;14.324;2022-07-23T06:22:00;5.25;;;4.22;;
27939;SDS011;15275;51.716;14.324;2022-07-23T06:24:25;7.50;;;4.57;;
27939;SDS011;15275;51.716;14.324;2022-07-23T06:26:51;6.05;;;4.57;;
27939;SDS011;15275;51.716;14.324;2022-07-23T06:29:17;7.10;;;4.35;;
27939;SDS011;15275;51.716;14.324;2022-07-23T06:31:43;5.53;;;4.60;;
27939;SDS011;15275;51.716;14.324;2022-07-23T06:34:09;7.72;;;4.90;;
27939;SDS011;15275;51.716;14.324;2022-07-23T06:36:35;5.68;;;4.30;;
27939;SDS011;15275;51.716;14.324;2022-07-23T06:39:01;6.65;;;4.55;;
27939;SDS011;15275;51.716;14.324;2022-07-23T06:41:27;6.05;;;4.70;;
27939;SDS011;15275;51.716;14.324;2022-07-23T06:43:53;6.22;;;5.15;;
27939;SDS011;15275;51.716;14.324;2022-07-23T06:46:19;8.35;;;4.78;;
27939;SDS011;15275;51.716;14.324;2022-07-23T06:48:46;7.00;;;5.30;;
27939;SDS011;15275;51.716;14.324;2022-07-23T06:51:12;5.70;;;4.65;;
27939;SDS011;15275;51.716;14.324;2022-07-23T06:53:38;6.38;;;4.60;;
27939;SDS011;15275;51.716;14.324;2022-07-23T07:04:03;5.80;;;5.20;;
27939;SDS011;15275;51.716;14.324;2022-07-23T07:06:29;8.98;;;5.32;;
27939;SDS011;15275;51.716;14.324;2022-07-23T07:08:54;5.50;;;5.00;;
27939;SDS011;15275;51.716;14.324;2022-07-23T07:11:21;6.35;;;5.18;;
27939;SDS011;15275;51.716;14.324;2022-07-23T07:13:48;9.07;;;5.22;;
27939;SDS011;15275;51.716;14.324;2022-07-23T07:16:15;5.05;;;4.55;;
27939;SDS011;15275;51.716;14.324;2022-07-23T07:18:40;5.35;;;4.85;;
27939;SDS011;15275;51.716;14.324;2022-07-23T07:21:08;7.13;;;4.88;;
27939;SDS011;15275;51.716;14.324;2022-07-23T07:23:34;5.88;;;5.07;;
27939;SDS011;15275;51.716;14.324;2022-07-23T07:26:00;7.90;;;5.07;;
27939;SDS011;15275;51.716;14.324;2022-07-23T07:28:25;6.68;;;5.35;;
27939;SDS011;15275;51.716;14.324;2022-07-23T07:30:52;5.38;;;4.50;;
27939;SDS011;15275;51.716;14.324;2022-07-23T07:33:18;5.85;;;4.65;;
27939;SDS011;15275;51.716;14.324;2022-07-23T07:35:44;6.28;;;5.05;;
27939;SDS011;15275;51.716;14.324;2022-07-23T07:38:10;6.90;;;5.25;;
27939;SDS011;15275;51.716;14.324;2022-07-23T07:40:35;10.32;;;5.45;;
27939;SDS011;15275;51.716;14.324;2022-07-23T07:43:01;5.97;;;4.75;;
27939;SDS011;15275;51.716;14.324;2022-07-23T07:45:28;6.70;;;4.97;;
27939;SDS011;15275;51.716;14.324;2022-07-23T07:47:54;5.55;;;4.95;;
27939;SDS011;15275;51.716;14.324;2022-07-23T07:50:21;4.53;;;4.10;;
27939;SDS011;15275;51.716;14.324;2022-07-23T07:52:47;5.68;;;5.18;;
27939;SDS011;15275;51.716;14.324;2022-07-23T07:55:13;5.97;;;4.57;;
27939;SDS011;15275;51.716;14.324;2022-07-23T07:57:39;5.85;;;4.45;;
27939;SDS011;15275;51.716;14.324;2022-07-23T08:00:05;5.22;;;4.65;;
27939;SDS011;15275;51.716;14.324;2022-07-23T08:02:44;5.50;;;4.65;;
27939;SDS011;15275;51.716;14.324;2022-07-23T08:05:19;5.82;;;4.28;;
27939;SDS011;15275;51.716;14.324;2022-07-23T08:07:51;5.30;;;4.80;;
27939;SDS011;15275;51.716;14.324;2022-07-23T08:10:17;6.97;;;4.80;;
27939;SDS011;15275;51.716;14.324;2022-07-23T08:12:45;4.80;;;4.25;;
27939;SDS011;15275;51.716;14.324;2022-07-23T08:15:14;9.98;;;4.47;;
27939;SDS011;15275;51.716;14.324;2022-07-23T08:17:42;5.70;;;4.63;;
27939;SDS011;15275;51.716;14.324;2022-07-23T08:20:10;6.47;;;4.32;;
27939;SDS011;15275;51.716;14.324;2022-07-23T08:23:20;6.20;;;4.93;;
27939;SDS011;15275;51.716;14.324;2022-07-23T08:25:35;7.07;;;4.35;;
27939;SDS011;15275;51.716;14.324;2022-07-23T08:28:08;5.72;;;4.78;;
27939;SDS011;15275;51.716;14.324;2022-07-23T08:30:37;6.40;;;4.50;;
27939;SDS011;15275;51.716;14.324;2022-07-23T08:33:05;5.72;;;4.10;;
27939;SDS011;15275;51.716;14.324;2022-07-23T08:35:38;6.28;;;4.88;;
27939;SDS011;15275;51.716;14.324;2022-07-23T08:38:14;6.40;;;4.80;;
27939;SDS011;15275;51.716;14.324;2022-07-23T08:40:43;5.00;;;4.38;;
27939;SDS011;15275;51.716;14.324;2022-07-23T08:43:13;5.18;;;4.35;;
27939;SDS011;15275;51.716;14.324;2022-07-23T08:45:46;5.85;;;4.78;;
27939;SDS011;15275;51.716;14.324;2022-07-23T08:48:15;5.28;;;4.45;;
27939;SDS011;15275;51.716;14.324;2022-07-23T08:50:50;4.93;;;4.30;;
27939;SDS011;15275;51.716;14.324;2022-07-23T08:53:20;5.95;;;4.40;;
27939;SDS011;15275;51.716;14.324;2022-07-23T08:55:48;5.72;;;3.92;;
27939;SDS011;15275;51.716;14.324;2022-07-23T08:58:16;4.80;;;4.30;;
27939;SDS011;15275;51.716;14.324;2022-07-23T09:00:43;7.22;;;4.45;;
27939;SDS011;15275;51.716;14.324;2022-07-23T09:03:21;4.72;;;4.00;;
27939;SDS011;15275;51.716;14.324;2022-07-23T09:06:00;5.10;;;3.92;;
27939;SDS011;15275;51.716;14.324;2022-07-23T09:08:42;6.95;;;3.92;;
27939;SDS011;15275;51.716;14.324;2022-07-23T09:11:12;5.22;;;4.43;;
27939;SDS011;15275;51.716;14.324;2022-07-23T09:13:42;6.35;;;4.72;;
27939;SDS011;15275;51.716;14.324;2022-07-23T09:16:16;6.70;;;5.00;;
27939;SDS011;15275;51.716;14.324;2022-07-23T09:18:55;5.55;;;4.78;;
27939;SDS011;15275;51.716;14.324;2022-07-23T09:21:28;7.93;;;4.45;;
27939;SDS011;15275;51.716;14.324;2022-07-23T09:29:13;4.80;;;4.32;;
27939;SDS011;15275;51.716;14.324;2022-07-23T09:34:27;6.20;;;4.35;;
27939;SDS011;15275;51.716;14.324;2022-07-23T09:37:16;5.50;;;4.88;;
27939;SDS011;15275;51.716;14.324;2022-07-23T09:39:46;5.15;;;4.65;;
27939;SDS011;15275;51.716;14.324;2022-07-23T09:42:23;6.53;;;5.22;;
27939;SDS011;15275;51.716;14.324;2022-07-23T09:44:51;6.85;;;5.35;;
27939;SDS011;15275;51.716;14.324;2022-07-23T09:47:20;5.60;;;5.05;;
27939;SDS011;15275;51.716;14.324;2022-07-23T09:52:30;6.88;;;5.15;;
27939;SDS011;15275;51.716;14.324;2022-07-23T09:55:17;5.82;;;5.00;;
27939;SDS011;15275;51.716;14.324;2022-07-23T09:57:44;6.65;;;5.32;;
27939;SDS011;15275;51.716;14.324;2022-07-23T10:00:20;6.63;;;5.60;;
27939;SDS011;15275;51.716;14.324;2022-07-23T10:02:48;5.97;;;5.32;;
27939;SDS011;15275;51.716;14.324;2022-07-23T10:05:15;6.68;;;5.53;;
27939;SDS011;15275;51.716;14.324;2022-07-23T10:07:41;6.75;;;4.97;;
27939;SDS011;15275;51.716;14.324;2022-07-23T10:10:08;8.50;;;5.45;;
27939;SDS011;15275;51.716;14.324;2022-07-23T10:12:36;5.85;;;5.35;;
27939;SDS011;15275;51.716;14.324;2022-07-23T10:15:11;6.03;;;4.85;;
27939;SDS011;15275;51.716;14.324;2022-07-23T10:17:37;6.45;;;5.20;;
27939;SDS011;15275;51.716;14.324;2022-07-23T10:20:03;6.00;;;4.75;;
27939;SDS011;15275;51.716;14.324;2022-07-23T10:22:34;5.20;;;4.70;;
27939;SDS011;15275;51.716;14.324;2022-07-23T10:36:47;7.88;;;5.03;;
27939;SDS011;15275;51.716;14.324;2022-07-23T10:39:30;5.50;;;4.32;;
27939;SDS011;15275;51.716;14.324;2022-07-23T10:42:12;6.07;;;4.75;;
27939;SDS011;15275;51.716;14.324;2022-07-23T10:44:41;5.25;;;4.45;;
27939;SDS011;15275;51.716;14.324;2022-07-23T10:47:13;4.85;;;4.35;;
27939;SDS011;15275;51.716;14.324;2022-07-23T10:50:23;4.57;;;4.18;;
27939;SDS011;15275;51.716;14.324;2022-07-23T10:57:57;5.78;;;4.82;;
27939;SDS011;15275;51.716;14.324;2022-07-23T11:00:27;5.93;;;4.65;;
27939;SDS011;15275;51.716;14.324;2022-07-23T11:02:57;5.00;;;4.47;;
27939;SDS011;15275;51.716;14.324;2022-07-23T11:05:41;6.10;;;4.78;;
27939;SDS011;15275;51.716;14.324;2022-07-23T11:34:45;6.97;;;4.68;;
27939;SDS011;15275;51.716;14.324;2022-07-23T11:40:18;6.13;;;4.95;;
27939;SDS011;15275;51.716;14.324;2022-07-23T11:42:59;5.57;;;4.75;;
27939;SDS011;15275;51.716;14.324;2022-07-23T11:45:33;8.38;;;5.00;;
27939;SDS011;15275;51.716;14.324;2022-07-23T11:50:32;6.43;;;5.10;;
27939;SDS011;15275;51.716;14.324;2022-07-23T11:52:58;6.25;;;5.05;;
27939;SDS011;15275;51.716;14.324;2022-07-23T11:55:24;9.95;;;5.40;;
27939;SDS011;15275;51.716;14.324;2022-07-23T11:57:51;6.65;;;4.78;;
27939;SDS011;15275;51.716;14.324;2022-07-23T12:00:22;5.90;;;5.13;;
27939;SDS011;15275;51.716;14.324;2022-07-23T12:02:52;6.53;;;5.30;;
27939;SDS011;15275;51.716;14.324;2022-07-23T12:05:31;5.30;;;4.80;;
27939;SDS011;15275;51.716;14.324;2022-07-23T12:08:00;5.57;;;4.97;;
27939;SDS011;15275;51.716;14.324;2022-07-23T12:10:36;5.68;;;5.15;;
27939;SDS011;15275;51.716;14.324;2022-07-23T12:13:09;6.07;;;5.45;;
27939;SDS011;15275;51.716;14.324;2022-07-23T12:15:42;6.50;;;5.50;;
27939;SDS011;15275;51.716;14.324;2022-07-23T12:18:12;6.13;;;5.35;;
27939;SDS011;15275;51.716;14.324;2022-07-23T12:20:44;7.35;;;5.68;;
27939;SDS011;15275;51.716;14.324;2022-07-23T12:23:14;6.13;;;5.22;;
27939;SDS011;15275;51.716;14.324;2022-07-23T12:25:43;5.95;;;5.35;;
27939;SDS011;15275;51.716;14.324;2022-07-23T12:30:52;6.20;;;5.60;;
27939;SDS011;15275;51.716;14.324;2022-07-23T12:33:24;6.65;;;5.90;;
27939;SDS011;15275;51.716;14.324;2022-07-23T12:35:53;6.68;;;5.60;;
27939;SDS011;15275;51.716;14.324;2022-07-23T12:38:21;7.95;;;5.63;;
27939;SDS011;15275;51.716;14.324;2022-07-23T12:40:57;7.07;;;5.18;;
27939;SDS011;15275;51.716;14.324;2022-07-23T12:43:31;7.55;;;5.47;;
27939;SDS011;15275;51.716;14.324;2022-07-23T12:46:05;6.60;;;5.18;;
27939;SDS011;15275;51.716;14.324;2022-07-23T12:53:46;6.22;;;5.63;;
27939;SDS011;15275;51.716;14.324;2022-07-23T12:56:28;7.43;;;5.72;;
27939;SDS011;15275;51.716;14.324;2022-07-23T13:01:29;6.03;;;5.22;;
27939;SDS011;15275;51.716;14.324;2022-07-23T13:06:50;7.90;;;5.15;;
27939;SDS011;15275;51.716;14.324;2022-07-23T13:09:20;6.88;;;5.10;;
27939;SDS011;15275;51.716;14.324;2022-07-23T13:11:49;7.63;;;5.28;;
27939;SDS011;15275;51.716;14.324;2022-07-23T13:14:17;8.68;;;5.55;;
27939;SDS011;15275;51.716;14.324;2022-07-23T13:16:44;5.90;;;4.80;;
27939;SDS011;15275;51.716;14.324;2022-07-23T13:19:12;6.85;;;5.63;;
27939;SDS011;15275;51.716;14.324;2022-07-23T13:21:39;6.85;;;5.90;;
27939;SDS011;15275;51.716;14.324;2022-07-23T13:24:06;5.97;;;5.38;;
27939;SDS011;15275;51.716;14.324;2022-07-23T13:26:36;6.30;;;5.70;;
27939;SDS011;15275;51.716;14.324;2022-07-23T13:29:02;5.88;;;5.28;;
27939;SDS011;15275;51.716;14.324;2022-07-23T13:31:29;5.75;;;5.20;;
27939;SDS011;15275;51.716;14.324;2022-07-23T13:33:55;6.72;;;5.55;;
27939;SDS011;15275;51.716;14.324;2022-07-23T13:36:21;7.13;;;5.63;;
27939;SDS011;15275;51.716;14.324;2022-07-23T13:38:47;5.78;;;5.18;;
27939;SDS011;15275;51.716;14.324;2022-07-23T13:41:13;5.70;;;5.10;;
27939;SDS011;15275;51.716;14.324;2022-07-23T13:43:41;5.93;;;4.90;;
27939;SDS011;15275;51.716;14.324;2022-07-23T13:46:07;12.02;;;5.70;;
27939;SDS011;15275;51.716;14.324;2022-07-23T13:48:33;6.65;;;5.47;;
27939;SDS011;15275;51.716;14.324;2022-07-23T13:50:59;7.00;;;5.22;;
27939;SDS011;15275;51.716;14.324;2022-07-23T13:53:25;5.20;;;4.75;;
27939;SDS011;15275;51.716;14.324;2022-07-23T13:55:51;9.18;;;4.57;;
27939;SDS011;15275;51.716;14.324;2022-07-23T13:58:20;5.88;;;4.75;;
27939;SDS011;15275;51.716;14.324;2022-07-23T14:00:48;14.18;;;4.55;;
27939;SDS011;15275;51.716;14.324;2022-07-23T14:03:17;5.38;;;4.30;;
27939;SDS011;15275;51.716;14.324;2022-07-23T14:05:43;5.50;;;4.20;;
27939;SDS011;15275;51.716;14.324;2022-07-23T14:08:09;5.28;;;4.50;;
27939;SDS011;15275;51.716;14.324;2022-07-23T14:10:36;5.93;;;4.43;;
27939;SDS011;15275;51.716;14.324;2022-07-23T14:13:02;5.15;;;4.35;;
27939;SDS011;15275;51.716;14.324;2022-07-23T14:15:28;5.03;;;4.22;;
27939;SDS011;15275;51.716;14.324;2022-07-23T14:17:57;5.53;;;4.68;;
27939;SDS011;15275;51.716;14.324;2022-07-23T14:20:23;5.03;;;4.53;;
27939;SDS011;15275;51.716;14.324;2022-07-23T14:22:50;4.82;;;4.10;;
27939;SDS011;15275;51.716;14.324;2022-07-23T14:25:16;5.38;;;3.75;;
27939;SDS011;15275;51.716;14.324;2022-07-23T14:27:42;3.92;;;3.53;;
27939;SDS011;15275;51.716;14.324;2022-07-23T14:30:10;5.50;;;4.20;;
27939;SDS011;15275;51.716;14.324;2022-07-23T14:32:37;5.82;;;4.30;;
27939;SDS011;15275;51.716;14.324;2022-07-23T14:35:04;5.20;;;4.05;;
27939;SDS011;15275;51.716;14.324;2022-07-23T14:37:31;6.22;;;3.92;;
27939;SDS011;15275;51.716;14.324;2022-07-23T14:39:58;4.25;;;3.70;;
27939;SDS011;15275;51.716;14.324;2022-07-23T14:42:24;4.00;;;3.60;;
27939;SDS011;15275;51.716;14.324;2022-07-23T14:44:50;6.10;;;3.08;;
27939;SDS011;15275;51.716;14.324;2022-07-23T14:47:16;3.53;;;3.17;;
27939;SDS011;15275;51.716;14.324;2022-07-23T14:49:43;5.07;;;3.70;;
27939;SDS011;15275;51.716;14.324;2022-07-23T14:52:09;5.47;;;3.55;;
27939;SDS011;15275;51.716;14.324;2022-07-23T14:54:35;3.53;;;2.97;;
27939;SDS011;15275;51.716;14.324;2022-07-23T14:57:02;3.78;;;3.15;;
27939;SDS011;15275;51.716;14.324;2022-07-23T14:59:29;5.25;;;3.10;;
27939;SDS011;15275;51.716;14.324;2022-07-23T15:01:55;3.05;;;2.75;;
27939;SDS011;15275;51.716;14.324;2022-07-23T15:04:23;8.85;;;3.40;;
27939;SDS011;15275;51.716;14.324;2022-07-23T15:06:49;4.78;;;3.42;;
27939;SDS011;15275;51.716;14.324;2022-07-23T15:09:16;4.53;;;3.40;;
27939;SDS011;15275;51.716;14.324;2022-07-23T15:11:42;8.60;;;3.97;;
27939;SDS011;15275;51.716;14.324;2022-07-23T15:14:08;3.55;;;3.08;;
27939;SDS011;15275;51.716;14.324;2022-07-23T15:16:34;4.93;;;3.60;;
27939;SDS011;15275;51.716;14.324;2022-07-23T15:19:01;5.32;;;3.15;;
27939;SDS011;15275;51.716;14.324;2022-07-23T15:21:28;6.43;;;3.60;;
27939;SDS011;15275;51.716;14.324;2022-07-23T15:23:55;4.43;;;3.38;;
27939;SDS011;15275;51.716;14.324;2022-07-23T15:26:25;3.75;;;3.13;;
27939;SDS011;15275;51.716;14.324;2022-07-23T15:28:55;5.57;;;3.83;;
27939;SDS011;15275;51.716;14.324;2022-07-23T15:31:23;4.88;;;3.30;;
27939;SDS011;15275;51.716;14.324;2022-07-23T15:33:50;4.53;;;3.30;;
27939;SDS011;15275;51.716;14.324;2022-07-23T15:36:17;3.53;;;3.22;;
27939;SDS011;15275;51.716;14.324;2022-07-23T15:38:46;5.78;;;4.07;;
27939;SDS011;15275;51.716;14.324;2022-07-23T15:41:12;4.28;;;3.75;;
27939;SDS011;15275;51.716;14.324;2022-07-23T15:43:38;5.32;;;4.00;;
27939;SDS011;15275;51.716;14.324;2022-07-23T15:46:04;4.32;;;3.92;;
27939;SDS011;15275;51.716;14.324;2022-07-23T15:48:31;4.47;;;3.55;;
27939;SDS011;15275;51.716;14.324;2022-07-23T15:51:01;6.03;;;4.70;;
27939;SDS011;15275;51.716;14.324;2022-07-23T15:53:28;5.20;;;4.13;;
27939;SDS011;15275;51.716;14.324;2022-07-23T15:55:54;4.38;;;3.63;;
27939;SDS011;15275;51.716;14.324;2022-07-23T15:58:20;8.35;;;5.03;;